Time;durP1;ratioP1;P1;durP2;ratioP2;P2;SDS_P1;SDS_P2;PMS_P1;PMS_P2;Temp;Humidity;BMP_temperature;BMP_pressure;BME280_temperature;BME280_humidity;BME280_pressure;Samples;Min_cycle;Max_cycle;Signal;HPM_P1;HPM_P2
2022/08/18 00:01:16;;;;;;;;;;;20.10;99.90;;;;;;5015861;28;20346;-75
2022/08/18 00:03:45;;;;;;;;;;;20.10;99.80;;;;;;5017482;28;19959;-75
2022/08/18 00:06:10;;;;;;;;;;;20.10;99.90;;;;;;5015969;28;19909;-75
2022/08/18 00:08:36;;;;;;;;;;;20.00;99.90;;;;;;5016832;28;19906;-73
2022/08/18 00:11:01;;;;;;;;;;;19.80;99.90;;;;;;5016714;28;20445;-75
2022/08/18 00:13:27;;;;;;;;;;;19.70;99.90;;;;;;5015453;28;19943;-74
2022/08/18 00:15:52;;;;;;;;;;;19.60;99.90;;;;;;5017314;28;19912;-74
2022/08/18 00:18:18;;;;;;;;;;;19.50;99.90;;;;;;5015928;28;20255;-74
2022/08/18 00:20:44;;;;;;;;;;;19.50;99.90;;;;;;5016696;28;20289;-75
2022/08/18 00:23:09;;;;;;;;;;;19.60;99.90;;;;;;5015565;28;20376;-75
2022/08/18 00:25:35;;;;;;;;;;;19.60;99.90;;;;;;5015206;28;19909;-74
2022/08/18 00:28:01;;;;;;;;;;;19.60;99.90;;;;;;5015209;28;20016;-74
2022/08/18 00:30:26;;;;;;;;;;;19.70;99.90;;;;;;5015353;28;19949;-74
2022/08/18 00:32:53;;;;;;;;;;;19.70;99.90;;;;;;5015071;28;19905;-74
2022/08/18 00:35:20;;;;;;;;;;;19.70;99.90;;;;;;5015009;28;20409;-75
2022/08/18 00:37:47;;;;;;;;;;;19.60;99.90;;;;;;5014916;28;19906;-75
2022/08/18 00:40:15;;;;;;;;;;;19.50;99.90;;;;;;5014787;28;19909;-74
2022/08/18 00:42:46;;;;;;;;;;;19.40;99.90;;;;;;5014923;28;19960;-74
2022/08/18 00:45:14;;;;;;;;;;;19.40;99.90;;;;;;5014933;28;19906;-74
2022/08/18 00:47:41;;;;;;;;;;;19.30;99.90;;;;;;5014817;28;19956;-74
2022/08/18 00:50:06;;;;;;;;;;;19.20;99.90;;;;;;5014672;28;19955;-75
2022/08/18 00:52:32;;;;;;;;;;;19.10;99.90;;;;;;5016515;28;20297;-74
2022/08/18 00:55:00;;;;;;;;;;;19.10;99.90;;;;;;5015974;28;20352;-74
2022/08/18 00:57:27;;;;;;;;;;;19.20;99.90;;;;;;5015848;28;19913;-74
2022/08/18 00:59:56;;;;;;;;;;;19.20;99.90;;;;;;5015727;28;19931;-75
2022/08/18 01:02:25;;;;;;;;;;;19.30;99.90;;;;;;5014769;28;20415;-74
2022/08/18 01:04:56;;;;;;;;;;;19.30;99.90;;;;;;5014485;28;20387;-74
2022/08/18 01:07:28;;;;;;;;;;;19.30;99.90;;;;;;5015703;28;20381;-75
2022/08/18 01:09:54;;;;;;;;;;;19.30;99.90;;;;;;5014345;28;19906;-74
2022/08/18 01:12:19;;;;;;;;;;;19.20;99.90;;;;;;5015587;28;20255;-73
2022/08/18 01:14:45;;;;;;;;;;;19.10;99.90;;;;;;5015853;28;19905;-74
2022/08/18 01:22:46;;;;;;;;;;;18.90;99.90;;;;;;5015712;28;19909;-74
2022/08/18 01:27:57;;;;;;;;;;;18.70;99.90;;;;;;5015925;28;19974;-74
2022/08/18 01:30:24;;;;;;;9.65;5.60;;;18.60;99.90;;;;;;5013769;28;19906;-74
2022/08/18 01:32:51;;;;;;;10.68;5.75;;;18.40;99.90;;;;;;5014760;28;20026;-74
2022/08/18 01:35:19;;;;;;;8.15;6.13;;;18.30;99.90;;;;;;5013551;28;20018;-74
2022/08/18 01:37:45;;;;;;;8.00;5.95;;;18.20;99.90;;;;;;5015256;28;20471;-74
2022/08/18 01:40:14;;;;;;;8.38;5.70;;;18.20;99.90;;;;;;5013249;28;20441;-74
2022/08/18 01:42:44;;;;;;;7.68;5.70;;;18.30;99.90;;;;;;5013644;28;20453;-74
2022/08/18 01:45:12;;;;;;;6.10;5.20;;;18.20;99.90;;;;;;5014966;28;20017;-74
2022/08/18 01:47:39;;;;;;;5.65;5.05;;;18.20;99.90;;;;;;5013550;28;20061;-73
2022/08/18 01:50:06;;;;;;;7.20;4.97;;;18.20;99.90;;;;;;5013185;28;20041;-74
2022/08/18 01:52:34;;;;;;;6.95;5.55;;;18.20;99.90;;;;;;5014439;28;20057;-74
2022/08/18 01:55:00;;;;;;;6.57;4.90;;;18.20;99.90;;;;;;5014382;28;20032;-74
2022/08/18 01:57:26;;;;;;;6.97;5.18;;;18.20;99.90;;;;;;5013030;28;20401;-74
2022/08/18 01:59:52;;;;;;;6.68;5.18;;;18.20;99.90;;;;;;5012583;28;20032;-74
2022/08/18 02:02:23;;;;;;;6.95;5.05;;;18.20;99.90;;;;;;5014301;28;20029;-74
2022/08/18 02:04:56;;;;;;;8.63;5.47;;;18.20;99.90;;;;;;5013001;28;20072;-74
2022/08/18 02:07:22;;;;;;;6.57;5.43;;;18.20;99.90;;;;;;5012998;28;20053;-74
2022/08/18 02:09:48;;;;;;;6.20;4.97;;;18.20;99.90;;;;;;5012926;28;20072;-74
2022/08/18 02:12:13;;;;;;;7.90;5.57;;;18.30;99.90;;;;;;5014079;28;20026;-74
2022/08/18 02:14:39;;;;;;;5.40;4.65;;;18.20;99.90;;;;;;5014088;28;20021;-74
2022/08/18 02:17:07;;;;;;;6.88;4.82;;;18.00;99.90;;;;;;5014348;28;20030;-74
2022/08/18 02:19:42;;;;;;;7.90;5.70;;;17.90;99.90;;;;;;5014247;28;20064;-74
2022/08/18 02:22:09;;;;;;;8.02;5.97;;;17.80;99.90;;;;;;5012680;28;20029;-73
2022/08/18 02:24:36;;;;;;;8.75;6.75;;;17.70;99.90;;;;;;5013955;28;20034;-73
2022/08/18 02:27:02;;;;;;;8.93;6.30;;;17.60;99.90;;;;;;5014226;28;20459;-74
2022/08/18 02:29:28;;;;;;;6.60;5.78;;;17.50;99.90;;;;;;5012634;28;20037;-74
2022/08/18 02:31:54;;;;;;;6.40;5.13;;;17.30;99.90;;;;;;5012470;28;20032;-74
2022/08/18 02:34:19;;;;;;;7.53;5.40;;;17.20;99.90;;;;;;5013796;28;20104;-74
2022/08/18 02:36:45;;;;;;;9.02;5.68;;;17.20;99.90;;;;;;5013787;28;20034;-74
2022/08/18 02:39:11;;;;;;;7.68;5.05;;;17.20;99.90;;;;;;5012381;28;20036;-74
2022/08/18 02:41:36;;;;;;;6.60;5.30;;;17.10;99.90;;;;;;5013649;28;20022;-74
2022/08/18 02:44:03;;;;;;;6.15;4.93;;;17.20;99.90;;;;;;5014244;28;20473;-74
2022/08/18 02:46:29;;;;;;;7.55;5.45;;;17.30;99.90;;;;;;5013972;28;20014;-74
2022/08/18 02:48:55;;;;;;;9.10;4.90;;;17.40;99.90;;;;;;5012352;28;20022;-73
2022/08/18 02:51:21;;;;;;;5.03;4.53;;;17.40;99.90;;;;;;5013813;28;20109;-73
2022/08/18 02:53:47;;;;;;;7.07;4.95;;;17.30;99.90;;;;;;5012329;28;20058;-73
2022/08/18 02:56:26;;;;;;;5.57;4.65;;;17.20;99.90;;;;;;5012161;28;20479;-74
2022/08/18 02:59:06;;;;;;;6.35;4.47;;;17.20;99.90;;;;;;5013540;28;20021;-74
2022/08/18 03:01:38;;;;;;;6.93;4.43;;;17.20;99.90;;;;;;5012239;28;20026;-74
2022/08/18 03:04:06;;;;;;;5.30;4.30;;;17.30;99.90;;;;;;5013845;28;20030;-74
2022/08/18 03:06:34;;;;;;;5.32;4.82;;;17.30;99.90;;;;;;5012348;28;20026;-73
2022/08/18 03:09:01;;;;;;;6.40;5.03;;;17.30;99.90;;;;;;5013059;28;20022;-73
2022/08/18 03:11:28;;;;;;;5.43;4.53;;;17.30;99.90;;;;;;5014461;28;20018;-74
2022/08/18 03:13:55;;;;;;;6.75;4.65;;;17.30;99.90;;;;;;5016088;28;20387;-74
2022/08/18 03:16:23;;;;;;;7.47;4.95;;;17.30;99.90;;;;;;5017894;28;20041;-74
2022/08/18 03:18:50;;;;;;;6.10;5.18;;;17.30;99.90;;;;;;5016034;28;20026;-74
2022/08/18 03:21:23;;;;;;;9.35;5.43;;;17.30;99.90;;;;;;5017105;28;20030;-74
2022/08/18 03:23:50;;;;;;;6.03;4.97;;;17.20;99.90;;;;;;5015999;28;20022;-74
2022/08/18 03:26:18;;;;;;;5.60;4.43;;;17.20;99.90;;;;;;5015841;28;20053;-74
2022/08/18 03:28:46;;;;;;;6.93;4.90;;;17.00;99.90;;;;;;5017087;28;20021;-74
2022/08/18 03:31:14;;;;;;;10.18;5.32;;;16.90;99.90;;;;;;5015704;28;20560;-74
2022/08/18 03:33:41;;;;;;;5.75;5.00;;;16.90;99.90;;;;;;5015754;28;20462;-74
2022/08/18 03:36:18;;;;;;;5.55;4.28;;;17.00;99.90;;;;;;5016929;28;20033;-74
2022/08/18 03:38:45;;;;;;;7.50;4.95;;;17.00;99.90;;;;;;5016961;28;20030;-74
2022/08/18 03:41:13;;;;;;;6.93;4.90;;;17.00;99.90;;;;;;5017346;28;20037;-74
2022/08/18 03:43:40;;;;;;;6.63;5.15;;;17.00;99.90;;;;;;5017153;28;20026;-73
2022/08/18 03:46:11;;;;;;;6.25;4.40;;;16.90;99.90;;;;;;5015513;28;20543;-74
2022/08/18 03:48:38;;;;;;;;;;;16.90;99.90;;;;;;5017486;28;20377;-73
2022/08/18 03:51:21;;;;;;;8.85;6.20;;;16.90;99.90;;;;;;5015458;28;19912;-73
2022/08/18 03:53:48;;;;;;;11.48;6.38;;;16.80;99.90;;;;;;5015396;28;20120;-73
2022/08/18 03:56:20;;;;;;;12.02;7.25;;;16.80;99.90;;;;;;5016491;28;20037;-73
2022/08/18 03:58:52;;;;;;;11.15;6.65;;;16.70;99.90;;;;;;5015299;28;20057;-73
2022/08/18 04:01:21;;;;;;;8.90;6.43;;;16.70;99.90;;;;;;5015129;28;20496;-73
2022/08/18 04:03:51;;;;;;;10.15;6.63;;;16.70;99.90;;;;;;5016467;28;20095;-73
2022/08/18 04:06:21;;;;;;;10.30;6.25;;;16.80;99.90;;;;;;5015248;28;20026;-73
2022/08/18 04:08:50;;;;;;;9.15;6.50;;;16.80;99.90;;;;;;5016636;28;20026;-73
2022/08/18 04:11:16;;;;;;;8.10;5.97;;;16.80;99.90;;;;;;5016240;28;20022;-73
2022/08/18 04:13:42;;;;;;;8.15;5.78;;;16.80;99.90;;;;;;5015084;28;20030;-73
2022/08/18 04:16:08;;;;;;;7.97;5.60;;;16.80;99.90;;;;;;5016202;28;20033;-73
2022/08/18 04:18:34;;;;;;;7.93;5.45;;;16.80;99.90;;;;;;5014900;28;20096;-73
2022/08/18 04:21:08;;;;;;;6.72;5.47;;;16.80;99.90;;;;;;5014448;28;20065;-74
2022/08/18 04:23:36;;;;;;;6.75;5.40;;;16.80;99.90;;;;;;5014897;28;20022;-74
2022/08/18 04:26:04;;;;;;;7.50;5.50;;;16.80;99.90;;;;;;5016041;28;20030;-74
2022/08/18 04:28:31;;;;;;;6.28;4.97;;;16.80;99.90;;;;;;5014846;28;20116;-74
2022/08/18 04:30:59;;;;;;;9.07;6.10;;;16.70;99.90;;;;;;5014982;28;20121;-74
2022/08/18 04:33:26;;;;;;;7.60;5.75;;;16.60;99.90;;;;;;5014685;28;20033;-73
2022/08/18 04:35:53;;;;;;;8.20;5.65;;;16.60;99.90;;;;;;5014495;28;20026;-73
2022/08/18 04:38:19;;;;;;;8.38;5.80;;;16.50;99.90;;;;;;5029007;28;20032;-74
2022/08/18 04:40:46;;;;;;;7.32;5.45;;;16.60;99.90;;;;;;5034045;28;20036;-73
2022/08/18 04:43:14;;;;;;;8.07;5.97;;;16.60;99.90;;;;;;5033419;28;20013;-74
2022/08/18 04:45:45;;;;;;;7.03;5.40;;;16.60;99.90;;;;;;5035057;28;20474;-74
2022/08/18 04:48:11;;;;;;;6.80;5.05;;;16.70;99.90;;;;;;5035286;28;20079;-74
2022/08/18 04:50:37;;;;;;;6.10;4.82;;;16.70;99.90;;;;;;5033819;28;20025;-74
2022/08/18 04:55:50;;;;;;;7.30;5.40;;;16.70;99.90;;;;;;5035096;28;20087;-74
2022/08/18 04:58:17;;;;;;;6.45;5.65;;;16.70;99.90;;;;;;5033756;28;20095;-73
2022/08/18 05:00:44;;;;;;;5.82;4.97;;;16.70;99.90;;;;;;5033394;28;20026;-73
2022/08/18 05:03:11;;;;;;;6.93;4.90;;;16.70;99.90;;;;;;5035014;28;20025;-73
2022/08/18 05:05:36;;;;;;;7.72;5.55;;;16.70;99.90;;;;;;5034924;28;20021;-73
2022/08/18 05:08:03;;;;;;;6.10;5.22;;;16.70;99.90;;;;;;5033292;28;20489;-74
2022/08/18 05:10:28;;;;;;;10.32;5.50;;;16.70;99.90;;;;;;5033412;28;20090;-73
2022/08/18 05:12:54;;;;;;;10.15;5.72;;;16.80;99.90;;;;;;5034900;28;20120;-73
2022/08/18 05:15:20;;;;;;;8.02;5.80;;;16.90;99.90;;;;;;5034437;28;20028;-74
2022/08/18 05:17:46;;;;;;;6.93;5.20;;;16.90;99.90;;;;;;5033408;28;20107;-73
2022/08/18 05:20:12;;;;;;;6.85;5.30;;;16.90;99.90;;;;;;5034496;28;20039;-73
2022/08/18 05:22:42;;;;;;;7.70;5.75;;;17.00;99.90;;;;;;5033275;28;20018;-73
2022/08/18 05:25:09;;;;;;;6.78;5.53;;;17.00;99.90;;;;;;5034693;28;20436;-73
2022/08/18 05:27:38;;;;;;;7.50;6.05;;;17.00;99.90;;;;;;5034503;28;20036;-73
2022/08/18 05:30:06;;;;;;;6.53;5.70;;;17.00;99.90;;;;;;5032840;28;20036;-73
2022/08/18 05:32:41;;;;;;;7.43;5.32;;;17.00;99.90;;;;;;5033131;28;20032;-73
2022/08/18 05:35:11;;;;;;;6.47;5.40;;;17.00;99.90;;;;;;5033987;28;20029;-73
2022/08/18 05:38:10;;;;;;;9.18;6.40;;;17.00;99.90;;;;;;5033390;28;20037;-73
2022/08/18 05:40:36;;;;;;;7.20;5.32;;;17.00;99.90;;;;;;5034083;28;20080;-73
2022/08/18 05:43:04;;;;;;;9.60;6.00;;;17.00;99.90;;;;;;5033177;28;20029;-73
2022/08/18 05:45:30;;;;;;;7.07;5.45;;;17.00;99.90;;;;;;5033379;28;20033;-73
2022/08/18 05:47:59;;;;;;;9.43;5.47;;;17.10;99.90;;;;;;5032828;28;20028;-73
2022/08/18 05:50:26;;;;;;;7.47;5.72;;;17.10;99.90;;;;;;5032643;28;20112;-73
2022/08/18 05:53:04;;;;;;;7.40;5.65;;;17.10;99.90;;;;;;5033867;28;20025;-73
2022/08/18 05:58:37;;;;;;;10.88;6.55;;;17.20;99.90;;;;;;5032659;28;20040;-73
2022/08/18 06:01:25;;;;;;;10.25;6.68;;;17.30;99.90;;;;;;5033012;28;20087;-75
2022/08/18 06:04:00;;;;;;;14.60;7.00;;;17.30;99.90;;;;;;5031806;28;20581;-74
2022/08/18 06:06:29;;;;;;;10.90;6.47;;;17.30;99.90;;;;;;5031785;28;20026;-74
2022/08/18 06:09:32;;;;;;;9.93;6.22;;;17.40;99.90;;;;;;5032301;28;20033;-72
2022/08/18 06:12:22;;;;;;;7.65;6.18;;;17.30;99.90;;;;;;5033813;28;20025;-73
2022/08/18 06:14:48;;;;;;;8.40;5.95;;;17.30;99.90;;;;;;5032842;28;20029;-73
2022/08/18 06:17:38;;;;;;;7.97;5.82;;;17.30;99.90;;;;;;5033777;28;20025;-73
2022/08/18 06:20:27;;;;;;;8.27;6.35;;;17.30;99.90;;;;;;5048088;22;20504;-72
2022/08/18 06:23:15;;;;;;;7.10;6.10;;;17.30;99.90;;;;;;5014086;28;20021;-72
2022/08/18 06:25:46;;;;;;;8.45;6.20;;;17.30;99.90;;;;;;5012744;28;20026;-71
2022/08/18 06:28:14;;;;;;;9.18;6.25;;;17.40;99.90;;;;;;5012609;28;20026;-71
2022/08/18 06:30:40;;;;;;;8.30;5.85;;;17.30;99.90;;;;;;5013838;28;20173;-72
2022/08/18 06:33:11;;;;;;;11.23;6.50;;;17.40;99.90;;;;;;4996125;28;20026;-70
2022/08/18 06:35:42;;;;;;;9.10;6.00;;;17.40;99.90;;;;;;5014154;28;20026;-71
2022/08/18 06:38:39;;;;;;;11.45;7.25;;;17.50;99.90;;;;;;5013842;28;20104;-71
2022/08/18 06:41:13;;;;;;;10.32;6.20;;;17.50;99.90;;;;;;4996042;28;20508;-71
2022/08/18 06:44:02;;;;;;;9.65;7.10;;;17.50;99.90;;;;;;5014052;28;20026;-71
2022/08/18 06:46:40;;;;;;;9.90;6.55;;;17.60;99.90;;;;;;4982891;28;20037;-71
2022/08/18 06:49:10;;;;;;;8.80;6.55;;;17.50;99.90;;;;;;4995937;28;20028;-72
2022/08/18 06:51:36;;;;;;;8.37;7.00;;;17.50;99.90;;;;;;4996088;28;20018;-72
2022/08/18 06:54:27;;;;;;;9.20;6.30;;;17.50;99.90;;;;;;5013845;28;20311;-71
2022/08/18 06:56:54;;;;;;;9.82;6.75;;;17.50;99.90;;;;;;4990272;28;20048;-71
2022/08/18 06:59:23;;;;;;;8.23;6.53;;;17.60;99.90;;;;;;4995769;28;20052;-71
2022/08/18 07:01:58;;;;;;;9.48;6.28;;;17.50;99.90;;;;;;4995831;28;20109;-71
2022/08/18 07:04:42;;;;;;;8.40;5.75;;;17.50;99.90;;;;;;5013457;28;20092;-72
2022/08/18 07:07:19;;;;;;;13.88;7.70;;;17.50;99.90;;;;;;4995812;28;20032;-70
2022/08/18 07:09:45;;;;;;;9.18;7.72;;;17.50;99.90;;;;;;4995732;28;20058;-70
2022/08/18 07:12:19;;;;;;;10.35;7.60;;;17.50;99.90;;;;;;4995749;28;20030;-71
2022/08/18 07:14:55;;;;;;;11.25;7.95;;;17.50;99.90;;;;;;4995855;28;20026;-72
2022/08/18 07:17:38;;;;;;;12.98;8.23;;;17.50;99.90;;;;;;4995791;28;20088;-71
2022/08/18 07:20:17;;;;;;;10.43;7.40;;;17.50;99.90;;;;;;4995600;28;20494;-71
2022/08/18 07:22:52;;;;;;;10.77;8.10;;;17.50;99.90;;;;;;4996084;28;20038;-70
2022/08/18 07:25:30;;;;;;;11.45;7.53;;;17.50;99.90;;;;;;4995743;28;20060;-71
2022/08/18 07:28:00;;;;;;;12.43;7.20;;;17.50;99.90;;;;;;4995948;28;20401;-72
2022/08/18 07:30:26;;;;;;;11.82;7.30;;;17.50;99.90;;;;;;5013160;28;20025;-71
2022/08/18 07:33:04;;;;;;;8.90;6.65;;;17.50;99.90;;;;;;5013762;28;20109;-72
2022/08/18 07:35:34;;;;;;;9.55;7.03;;;17.50;99.90;;;;;;5013275;28;20029;-72
2022/08/18 07:38:07;;;;;;;10.30;6.75;;;17.60;99.90;;;;;;4995697;28;20026;-72
2022/08/18 07:40:39;;;;;;;8.75;6.80;;;17.60;99.90;;;;;;4995612;28;20116;-72
2022/08/18 07:43:13;;;;;;;12.88;8.10;;;17.70;99.90;;;;;;5013324;28;20022;-71
2022/08/18 07:45:44;;;;;;;13.32;7.72;;;17.80;99.90;;;;;;5013261;28;20101;-71
2022/08/18 07:48:15;;;;;;;;;;;17.80;99.90;;;;;;4995906;28;20032;-71
2022/08/18 07:50:53;;;;;;;9.93;7.20;;;17.90;99.90;;;;;;4995767;28;19928;-71
2022/08/18 07:53:42;;;;;;;9.90;7.15;;;18.00;99.90;;;;;;5013069;28;20052;-71
2022/08/18 07:56:49;;;;;;;8.15;6.55;;;18.00;99.90;;;;;;5013312;28;20057;-71
2022/08/18 07:59:17;;;;;;;10.93;7.35;;;18.10;99.90;;;;;;5015802;28;20125;-70
2022/08/18 08:01:48;;;;;;;13.43;7.53;;;18.20;99.90;;;;;;5016541;28;20026;-71
2022/08/18 08:04:31;;;;;;;10.02;7.05;;;18.30;99.90;;;;;;4999787;28;20022;-71
2022/08/18 08:07:08;;;;;;;10.60;7.97;;;18.40;99.90;;;;;;5016516;28;20104;-71
2022/08/18 08:09:45;;;;;;;12.27;6.88;;;18.50;99.90;;;;;;5016375;28;20032;-70
2022/08/18 08:12:17;;;;;;;9.68;6.85;;;18.70;99.90;;;;;;5016666;28;20026;-71
2022/08/18 08:14:47;;;;;;;7.78;6.15;;;18.90;99.90;;;;;;5016391;28;20033;-71
2022/08/18 08:17:36;;;;;;;11.38;6.60;;;19.10;99.90;;;;;;5016382;28;20050;-72
2022/08/18 08:20:25;;;;;;;8.80;7.03;;;19.30;99.90;;;;;;4998505;28;20038;-71
2022/08/18 08:23:26;;;;;;;9.98;6.55;;;19.60;99.90;;;;;;5016221;28;20034;-71
2022/08/18 08:26:01;;;;;;;9.32;6.80;;;19.90;99.90;;;;;;5016464;28;20029;-71
2022/08/18 08:28:55;;;;;;;8.80;6.05;;;20.20;99.90;;;;;;5015993;28;20025;-71
2022/08/18 08:31:36;;;;;;;7.65;6.00;;;20.30;99.90;;;;;;5014970;28;20124;-71
2022/08/18 08:34:09;;;;;;;7.60;6.20;;;20.50;99.90;;;;;;5016583;28;20029;-71
2022/08/18 08:36:41;;;;;;;8.82;6.65;;;20.70;99.90;;;;;;4998416;28;20021;-71
2022/08/18 08:39:13;;;;;;;10.07;6.60;;;20.90;99.90;;;;;;4998188;28;20053;-71
2022/08/18 08:41:38;;;;;;;9.77;6.43;;;21.20;99.90;;;;;;5015892;28;20109;-71
2022/08/18 08:44:29;;;;;;;9.02;6.40;;;21.50;99.90;;;;;;4998142;28;20049;-71
2022/08/18 08:47:01;;;;;;;7.35;6.10;;;21.70;99.90;;;;;;5015770;28;20436;-70
2022/08/18 08:49:39;;;;;;;7.72;6.00;;;21.90;99.90;;;;;;4997935;28;20445;-71
2022/08/18 08:52:23;;;;;;;9.27;5.90;;;22.10;99.90;;;;;;4996597;28;20422;-72
2022/08/18 08:54:55;;;;;;;8.40;5.72;;;22.20;99.90;;;;;;4997454;28;20374;-72
2022/08/18 08:57:28;;;;;;;8.93;5.60;;;22.20;99.90;;;;;;5015149;28;20080;-72
2022/08/18 08:59:57;;;;;;;7.95;5.35;;;22.30;99.50;;;;;;4997227;28;20036;-73
2022/08/18 09:02:42;;;;;;;8.57;5.80;;;22.30;99.50;;;;;;4997379;28;20080;-73
2022/08/18 09:05:18;;;;;;;6.60;5.03;;;22.30;99.90;;;;;;5014960;28;20056;-71
2022/08/18 09:07:47;;;;;;;7.45;5.20;;;22.40;98.80;;;;;;5014917;28;20044;-71
2022/08/18 09:10:34;;;;;;;6.68;5.60;;;22.40;98.90;;;;;;5014937;28;20025;-71
2022/08/18 09:13:28;;;;;;;6.93;5.75;;;22.40;98.40;;;;;;4997616;28;20522;-71
2022/08/18 09:16:18;;;;;;;6.90;5.30;;;22.40;97.60;;;;;;4997615;28;20040;-72
2022/08/18 09:18:52;;;;;;;8.10;5.20;;;22.50;97.80;;;;;;5015064;28;20041;-71
2022/08/18 09:21:39;;;;;;;8.85;5.53;;;22.60;98.30;;;;;;4997648;28;20044;-71
2022/08/18 09:24:27;;;;;;;9.18;5.40;;;22.60;98.20;;;;;;5015290;28;20096;-71
2022/08/18 09:27:02;;;;;;;10.60;5.53;;;22.60;97.50;;;;;;4997462;28;20029;-71
2022/08/18 09:29:37;;;;;;;6.95;5.28;;;22.60;97.50;;;;;;4997511;28;20504;-71
2022/08/18 09:32:18;;;;;;;10.55;5.38;;;22.60;97.60;;;;;;4997366;28;20026;-72
2022/08/18 09:35:06;;;;;;;9.35;5.85;;;22.50;98.20;;;;;;4997297;28;20501;-72
2022/08/18 09:43:53;;;;;;;6.97;5.43;;;22.70;97.70;;;;;;4974079;28;20023;-71
2022/08/18 09:46:41;;;;;;;7.00;5.75;;;22.80;97.60;;;;;;5010897;28;20030;-71
2022/08/18 09:49:25;;;;;;;9.30;6.00;;;22.90;97.80;;;;;;4996848;28;20116;-72
2022/08/18 09:51:59;;;;;;;6.78;5.28;;;22.90;97.20;;;;;;5014639;28;20022;-71
2022/08/18 09:54:32;;;;;;;8.45;5.07;;;23.00;97.10;;;;;;5014806;28;20048;-72
2022/08/18 09:57:16;;;;;;;8.23;5.68;;;23.10;97.10;;;;;;4996918;28;20105;-73
2022/08/18 09:59:46;;;;;;;7.10;5.15;;;23.30;95.90;;;;;;4996762;28;20025;-73
2022/08/18 10:02:32;;;;;;;8.87;5.40;;;23.30;95.80;;;;;;5014431;28;20014;-72
2022/08/18 10:05:16;;;;;;;8.93;5.40;;;23.40;96.00;;;;;;4996805;28;20022;-72
2022/08/18 10:08:05;;;;;;;9.05;5.78;;;23.50;94.50;;;;;;5012526;28;20028;-72
2022/08/18 10:10:36;;;;;;;8.18;4.72;;;23.60;94.50;;;;;;4998040;28;20030;-72
2022/08/18 10:13:07;;;;;;;;;;;23.90;94.30;;;;;;5008074;28;20511;-72
2022/08/18 10:15:48;;;;;;;;;;;24.00;93.40;;;;;;5001650;28;20046;-74
2022/08/18 10:18:29;;;;;;;;;;;24.00;93.20;;;;;;5012460;28;19968;-73
2022/08/18 10:21:02;;;;;;;;;;;24.00;93.20;;;;;;5005187;28;20030;-73
2022/08/18 10:23:49;;;;;;;;;;;24.00;94.00;;;;;;5018059;28;20038;-74
2022/08/18 10:26:30;;;;;;;;;;;24.00;94.60;;;;;;5013233;28;19949;-73
2022/08/18 10:29:00;;;;;;;;;;;24.00;94.60;;;;;;4998137;28;20298;-73
2022/08/18 10:31:26;;;;;;;;;;;24.00;94.70;;;;;;4996292;28;20008;-73
2022/08/18 10:34:00;;;;;;;;;;;23.90;94.40;;;;;;4996546;28;20388;-73
2022/08/18 10:36:36;;;;;;;;;;;23.90;94.40;;;;;;5013004;28;19905;-72
2022/08/18 10:39:06;;;;;;;;;;;23.90;94.70;;;;;;5013849;28;19909;-73
2022/08/18 10:41:32;;;;;;;;;;;23.80;95.00;;;;;;4996067;28;19909;-73
2022/08/18 10:44:00;;;;;;;9.30;5.35;;;23.70;95.20;;;;;;4993945;28;20451;-74
2022/08/18 10:46:32;;;;;;;7.00;5.45;;;23.70;95.40;;;;;;5013485;28;20045;-73
2022/08/18 10:49:11;;;;;;;5.50;4.72;;;23.60;95.70;;;;;;4995857;28;20028;-73
2022/08/18 10:52:07;;;;;;;7.20;4.88;;;23.60;95.70;;;;;;5013651;28;20022;-73
2022/08/18 10:54:51;;;;;;;6.40;5.03;;;23.70;95.80;;;;;;5013602;28;20101;-72
2022/08/18 10:57:36;;;;;;;8.82;5.35;;;23.60;95.50;;;;;;5013496;28;20121;-73
2022/08/18 11:00:18;;;;;;;7.75;4.95;;;23.60;95.40;;;;;;4995441;28;20482;-72
2022/08/18 11:02:56;;;;;;;7.25;5.00;;;23.50;95.30;;;;;;5013414;28;20474;-72
2022/08/18 11:05:24;;;;;;;7.50;5.15;;;23.50;95.80;;;;;;4995789;28;20022;-73
2022/08/18 11:07:57;;;;;;;7.53;5.65;;;23.40;95.90;;;;;;5013347;28;20026;-73
2022/08/18 11:10:38;;;;;;;8.45;5.90;;;23.40;96.40;;;;;;5013280;28;20466;-73
2022/08/18 11:13:20;;;;;;;6.45;5.20;;;23.40;96.40;;;;;;5013356;28;20033;-73
2022/08/18 11:16:12;;;;;;;10.35;6.25;;;23.40;96.60;;;;;;4995496;28;20034;-73
2022/08/18 11:18:48;;;;;;;7.40;5.70;;;23.40;95.60;;;;;;5013332;28;20113;-73
2022/08/18 11:21:35;;;;;;;11.55;5.60;;;23.40;96.30;;;;;;4995558;28;20038;-73
2022/08/18 11:24:16;;;;;;;10.15;5.60;;;23.30;97.10;;;;;;5013331;28;20101;-72
2022/08/18 11:26:54;;;;;;;10.85;5.82;;;23.20;97.30;;;;;;4989394;28;20022;-73
2022/08/18 11:29:22;;;;;;;9.18;7.47;;;23.20;97.20;;;;;;5006736;28;20022;-73
2022/08/18 11:31:55;;;;;;;9.88;7.43;;;23.30;96.80;;;;;;4996828;28;20044;-72
2022/08/18 11:34:37;;;;;;;14.38;7.07;;;23.30;97.40;;;;;;4999653;28;20026;-72
2022/08/18 11:37:06;;;;;;;8.60;6.38;;;23.40;96.70;;;;;;4999426;28;20110;-72
2022/08/18 11:39:40;;;;;;;9.88;6.90;;;23.70;96.10;;;;;;4999086;28;20501;-72
2022/08/18 11:42:08;;;;;;;8.65;6.30;;;23.80;96.30;;;;;;4999441;28;20474;-72
2022/08/18 11:44:37;;;;;;;8.30;6.38;;;24.10;95.90;;;;;;4999196;28;20033;-72
2022/08/18 11:47:19;;;;;;;9.23;6.47;;;24.30;96.10;;;;;;5016737;28;20029;-72
2022/08/18 11:50:10;;;;;;;11.20;7.07;;;24.40;95.60;;;;;;4993803;28;20026;-72
2022/08/18 11:52:51;;;;;;;7.70;6.57;;;24.50;94.90;;;;;;5016997;28;20572;-72
2022/08/18 11:55:30;;;;;;;10.93;6.93;;;24.60;94.40;;;;;;5016393;28;20481;-72
2022/08/18 11:57:57;;;;;;;7.70;6.55;;;24.60;94.80;;;;;;5016237;28;20028;-72
2022/08/18 12:00:44;;;;;;;8.75;5.88;;;24.60;93.60;;;;;;4998494;28;20034;-73
2022/08/18 12:03:37;;;;;;;12.02;5.97;;;24.70;94.20;;;;;;5016546;28;20021;-72
2022/08/18 12:06:30;;;;;;;8.30;5.10;;;24.70;93.00;;;;;;5015108;28;20014;-73
2022/08/18 12:08:58;;;;;;;8.88;4.85;;;24.70;91.60;;;;;;5016120;28;20041;-73
2022/08/18 12:11:31;;;;;;;9.60;5.07;;;24.60;91.10;;;;;;4998812;28;20026;-73
2022/08/18 12:14:09;;;;;;;7.18;4.30;;;24.50;91.40;;;;;;4998591;28;20025;-73
2022/08/18 12:16:37;;;;;;;6.70;4.82;;;24.40;91.90;;;;;;5016201;28;20034;-72
2022/08/18 12:19:04;;;;;;;6.82;5.00;;;24.30;92.00;;;;;;4998173;28;20037;-72
2022/08/18 12:21:30;;;;;;;6.32;4.93;;;24.30;92.70;;;;;;4999021;28;20049;-73
2022/08/18 12:23:56;;;;;;;8.18;5.75;;;24.30;92.90;;;;;;4998518;28;20112;-73
2022/08/18 12:26:22;;;;;;;7.25;5.70;;;24.30;92.60;;;;;;5016009;28;20022;-72
2022/08/18 12:28:48;;;;;;;7.03;5.95;;;24.30;93.00;;;;;;4998367;28;20022;-72
2022/08/18 12:31:13;;;;;;;8.23;6.10;;;24.20;93.00;;;;;;5015658;28;20061;-72
2022/08/18 12:33:39;;;;;;;9.70;5.30;;;24.20;93.40;;;;;;4998335;28;20030;-72
2022/08/18 12:36:05;;;;;;;5.95;4.07;;;24.10;93.50;;;;;;4998277;28;20026;-73
2022/08/18 12:38:32;;;;;;;6.35;4.88;;;24.10;92.70;;;;;;4998192;28;20057;-72
2022/08/18 12:40:58;;;;;;;10.05;5.50;;;24.00;93.50;;;;;;4997968;28;20026;-72
2022/08/18 12:43:24;;;;;;;9.45;5.43;;;24.00;94.10;;;;;;4997917;28;20026;-72
2022/08/18 12:45:50;;;;;;;7.65;5.40;;;23.90;94.10;;;;;;4997815;28;20456;-72
2022/08/18 12:48:16;;;;;;;6.07;5.00;;;23.80;94.40;;;;;;4997992;28;20470;-74
2022/08/18 12:50:42;;;;;;;8.55;4.93;;;23.70;94.90;;;;;;5015526;28;20033;-74
2022/08/18 12:53:08;;;;;;;7.53;4.80;;;23.70;95.00;;;;;;4997915;28;20057;-73
2022/08/18 13:02:52;;;;;;;6.45;4.28;;;23.70;94.50;;;;;;4996191;28;20037;-74
2022/08/18 13:08:40;;;;;;;4.75;4.03;;;23.70;95.40;;;;;;4996322;28;20374;-74
2022/08/18 13:11:09;;;;;;;5.28;4.20;;;23.70;95.80;;;;;;5005702;28;20026;-74
2022/08/18 13:13:37;;;;;;;5.57;4.30;;;23.80;96.50;;;;;;5015245;28;20095;-74
2022/08/18 13:16:04;;;;;;;10.63;5.90;;;23.70;96.90;;;;;;5015481;28;20030;-74
2022/08/18 13:22:07;;;;;;;7.47;5.13;;;23.40;97.30;;;;;;5015187;28;20445;-75
2022/08/18 13:24:32;;;;;;;7.10;5.18;;;23.30;97.70;;;;;;4997982;28;20061;-75
2022/08/18 13:26:58;;;;;;;9.02;5.40;;;23.10;98.70;;;;;;5014771;28;20057;-74
2022/08/18 13:29:24;;;;;;;8.05;4.63;;;23.10;99.60;;;;;;4996069;28;20026;-75
2022/08/18 13:31:56;;;;;;;7.68;4.72;;;23.00;99.90;;;;;;4981320;28;20033;-75
2022/08/18 13:34:22;;;;;;;7.35;5.80;;;23.00;99.90;;;;;;5014853;28;20026;-74
2022/08/18 13:36:48;;;;;;;9.18;5.38;;;22.90;99.90;;;;;;5014736;28;20037;-74
2022/08/18 13:39:16;;;;;;;10.63;5.72;;;22.80;99.90;;;;;;4996967;28;20026;-75
2022/08/18 13:41:43;;;;;;;8.80;5.72;;;22.70;99.90;;;;;;5014711;28;20033;-75
2022/08/18 13:44:12;;;;;;;7.15;4.90;;;22.70;99.90;;;;;;5014992;28;20482;-74
2022/08/18 13:46:44;;;;;;;7.72;5.10;;;22.60;99.90;;;;;;4997530;28;20030;-75
2022/08/18 13:49:14;;;;;;;7.78;4.82;;;22.60;99.90;;;;;;5014821;28;20033;-75
2022/08/18 13:51:42;;;;;;;7.80;4.47;;;22.50;99.90;;;;;;5014907;28;20544;-74
2022/08/18 13:54:11;;;;;;;7.00;4.10;;;22.40;99.90;;;;;;4996777;28;20045;-74
2022/08/18 13:56:36;;;;;;;5.07;3.20;;;22.30;99.90;;;;;;5014469;28;20227;-74
2022/08/18 13:59:04;;;;;;;4.80;2.95;;;22.30;99.90;;;;;;5014003;28;20112;-75